Time;durP1;ratioP1;P1;durP2;ratioP2;P2;SDS_P1;SDS_P2;PMS_P1;PMS_P2;Temp;Humidity;BMP_temperature;BMP_pressure;BME280_temperature;BME280_humidity;BME280_pressure;Samples;Min_cycle;Max_cycle;Signal;HPM_P1;HPM_P2
2022/10/15 00:01:24;;;;;;;14.25;6.08;;;;;;;7.35;67.86;101012.50;1801386;79;21888;-78
2022/10/15 00:04:30;;;;;;;12.63;5.35;;;;;;;7.38;67.77;101005.39;1802709;79;21229;-78
2022/10/15 00:07:36;;;;;;;11.63;5.72;;;;;;;7.48;67.49;101005.92;1802660;79;21165;-78
2022/10/15 00:10:41;;;;;;;14.80;6.00;;;;;;;7.48;67.59;101008.17;1801200;79;21221;-79
2022/10/15 00:13:47;;;;;;;14.87;6.45;;;;;;;7.43;67.68;101009.95;1800960;79;21192;-78
2022/10/15 00:16:54;;;;;;;12.80;6.12;;;;;;;7.46;67.64;101012.02;1802611;79;21235;-78
2022/10/15 00:20:01;;;;;;;16.32;6.58;;;;;;;7.43;67.67;101011.31;1802619;79;21688;-78
2022/10/15 00:23:07;;;;;;;10.63;5.87;;;;;;;7.27;68.21;101008.23;1801234;79;21790;-78
2022/10/15 00:26:24;;;;;;;18.42;6.67;;;;;;;7.26;68.57;101007.02;1801276;79;21165;-78
2022/10/15 00:29:31;;;;;;;12.93;6.58;;;;;;;7.21;68.58;101004.72;1801190;79;21267;-78
2022/10/15 00:32:37;;;;;;;13.53;5.92;;;;;;;7.14;68.89;101014.41;1801236;79;21161;-78
2022/10/15 00:35:35;;;;;;;13.35;6.20;;;;;;;7.10;69.05;101012.95;1802699;79;21185;-78
2022/10/15 00:38:40;;;;;;;14.28;6.78;;;;;;;7.07;69.23;101006.45;1802819;79;21181;-78
2022/10/15 00:41:51;;;;;;;16.27;6.72;;;;;;;7.16;68.91;101007.84;1801159;79;21215;-78
2022/10/15 00:45:03;;;;;;;16.55;7.53;;;;;;;7.04;69.45;101018.45;1802820;79;21780;-78
2022/10/15 00:48:09;;;;;;;10.00;5.40;;;;;;;7.04;69.70;101013.52;1801332;79;21161;-79
2022/10/15 00:51:16;;;;;;;12.00;6.00;;;;;;;6.91;69.89;101021.89;1802085;79;21745;-78
2022/10/15 00:54:14;;;;;;;12.73;6.85;;;;;;;7.10;69.41;101018.39;1802809;79;21177;-79
2022/10/15 00:57:20;;;;;;;13.75;6.25;;;;;;;7.14;69.18;101021.20;1799986;79;21184;-79
2022/10/15 01:00:27;;;;;;;11.43;5.60;;;;;;;7.22;68.86;101024.62;1801086;79;21185;-78
2022/10/15 01:03:34;;;;;;;10.75;5.58;;;;;;;6.88;69.83;101024.39;1801092;79;21181;-79
2022/10/15 01:06:41;;;;;;;11.65;6.20;;;;;;;6.91;69.75;101021.39;1802624;79;21158;-78
2022/10/15 01:09:47;;;;;;;12.07;6.12;;;;;;;7.07;69.18;101017.33;1801882;79;21217;-80
2022/10/15 01:13:34;;;;;;;13.98;6.00;;;;;;;7.12;69.10;101020.50;1801255;79;21185;-80
2022/10/15 01:16:59;;;;;;;16.30;6.37;;;;;;;7.10;69.07;101022.48;1802567;79;21173;-79
2022/10/15 01:20:52;;;;;;;11.25;5.95;;;;;;;6.93;69.58;101021.77;1802590;79;21192;-78
2022/10/15 01:24:27;;;;;;;15.23;5.95;;;;;;;6.72;70.08;101022.64;1802850;79;21177;-79
2022/10/15 01:27:47;;;;;;;12.93;6.03;;;;;;;6.64;70.00;101020.61;1802684;79;21180;-79
2022/10/15 01:31:13;;;;;;;11.80;6.50;;;;;;;6.56;70.35;101023.63;1802419;79;21216;-78
2022/10/15 01:34:32;;;;;;;17.12;5.85;;;;;;;6.71;70.12;101025.50;1795467;79;21213;-78
2022/10/15 01:38:01;;;;;;;20.27;6.97;;;;;;;6.53;70.58;101031.53;1802858;79;21181;-79
2022/10/15 01:41:11;;;;;;;15.20;6.80;;;;;;;6.49;70.90;101027.86;1802762;79;22449;-79
2022/10/15 01:44:31;;;;;;;14.58;6.33;;;;;;;6.38;71.08;101031.01;1796371;79;21216;-79
2022/10/15 01:47:54;;;;;;;11.63;6.40;;;;;;;6.24;71.34;101035.41;1774500;79;21237;-78
2022/10/15 01:51:02;;;;;;;13.15;5.83;;;;;;;6.18;71.65;101044.59;1802815;79;21525;-78
2022/10/15 01:54:07;;;;;;;9.93;5.72;;;;;;;6.10;72.03;101040.65;1802660;79;21454;-78
2022/10/15 01:57:14;;;;;;;19.20;6.62;;;;;;;6.19;71.83;101040.37;1802317;79;21525;-79
2022/10/15 02:00:21;;;;;;;12.37;6.20;;;;;;;6.19;71.93;101040.37;1784348;79;21252;-78
2022/10/15 02:03:26;;;;;;;20.32;7.28;;;;;;;6.10;72.38;101040.65;1802550;79;22456;-78
2022/10/15 02:06:41;;;;;;;21.85;7.80;;;;;;;6.04;72.97;101048.47;1802714;79;21185;-78
2022/10/15 02:10:02;;;;;;;20.55;7.28;;;;;;;6.01;73.51;101046.86;1801938;79;21212;-78
2022/10/15 02:13:20;;;;;;;14.95;6.87;;;;;;;5.98;74.04;101048.49;1801359;79;22600;-78
2022/10/15 02:16:53;;;;;;;13.15;7.03;;;;;;;6.00;74.35;101049.21;1802757;79;21188;-78
2022/10/15 02:20:19;;;;;;;18.95;7.37;;;;;;;6.02;74.65;101050.43;1802663;79;21287;-78
2022/10/15 02:23:30;;;;;;;20.45;8.30;;;;;;;5.85;75.15;101049.97;1801303;79;21803;-78
2022/10/15 02:26:37;;;;;;;16.27;7.00;;;;;;;5.72;76.14;101046.55;1801360;79;21232;-78
2022/10/15 02:29:43;;;;;;;15.70;7.47;;;;;;;5.94;75.86;101055.66;1802125;79;21818;-78
2022/10/15 02:32:52;;;;;;;12.03;6.22;;;;;;;5.97;76.00;101060.81;1801803;79;21217;-78
2022/10/15 02:35:57;;;;;;;13.68;6.53;;;;;;;5.82;76.65;101058.36;1802565;79;22439;-78
2022/10/15 02:39:03;;;;;;;14.85;7.87;;;;;;;5.92;76.59;101057.63;1802733;79;21279;-78
2022/10/15 02:42:09;;;;;;;15.48;7.53;;;;;;;5.86;76.83;101053.05;1802737;79;21181;-78
2022/10/15 02:45:16;;;;;;;22.27;7.50;;;;;;;5.69;77.88;101056.78;1802185;79;21205;-78
2022/10/15 02:48:23;;;;;;;13.95;5.95;;;;;;;5.73;77.87;101060.48;1802897;79;21728;-78
2022/10/15 02:51:27;;;;;;;15.23;7.65;;;;;;;5.59;78.59;101056.69;1802635;79;21787;-78
2022/10/15 02:54:33;;;;;;;24.85;8.20;;;;;;;5.58;78.66;101059.04;1802784;79;21185;-78
2022/10/15 02:57:40;;;;;;;14.50;6.80;;;;;;;5.67;78.54;101052.86;1801745;79;21293;-78
2022/10/15 03:00:45;;;;;;;16.15;7.05;;;;;;;5.90;77.49;101055.02;1810269;79;21251;-78
2022/10/15 03:03:53;;;;;;;13.75;6.55;;;;;;;5.86;77.91;101060.33;1809656;79;21176;-78
2022/10/15 03:07:00;;;;;;;14.95;7.55;;;;;;;5.57;78.30;101060.03;1809706;79;21165;-78
2022/10/15 03:10:06;;;;;;;13.72;7.12;;;;;;;5.46;79.05;101060.03;1809704;79;21613;-79
2022/10/15 03:13:13;;;;;;;15.03;6.70;;;;;;;5.51;78.95;101062.77;1809872;79;21224;-79
2022/10/15 03:16:19;;;;;;;17.12;7.08;;;;;;;5.52;78.67;101056.84;1810584;79;21271;-79
2022/10/15 03:19:26;;;;;;;14.35;7.45;;;;;;;5.49;78.51;101063.86;1809829;79;21200;-79
2022/10/15 03:22:32;;;;;;;15.43;7.33;;;;;;;5.42;78.71;101065.36;1811343;79;21173;-79
2022/10/15 03:25:39;;;;;;;16.40;7.05;;;;;;;5.47;78.54;101061.78;1811302;79;21850;-78
2022/10/15 03:28:45;;;;;;;14.28;7.47;;;;;;;5.38;78.82;101061.53;1811331;79;21199;-78
2022/10/15 03:31:59;;;;;;;12.25;6.67;;;;;;;5.31;78.73;101060.78;1809953;79;21255;-78
2022/10/15 03:35:04;;;;;;;16.15;6.92;;;;;;;5.57;78.22;101068.17;1811371;79;21219;-78
2022/10/15 03:38:10;;;;;;;12.05;6.65;;;;;;;5.25;78.70;101058.08;1811320;79;21750;-78
2022/10/15 03:41:17;;;;;;;17.07;7.65;;;;;;;5.44;78.26;101071.02;1809846;79;21224;-78
2022/10/15 03:44:21;;;;;;;14.43;7.00;;;;;;;5.29;78.46;101066.34;1809977;79;21224;-78
2022/10/15 03:47:33;;;;;;;16.27;6.35;;;;;;;5.36;78.81;101068.95;1810975;79;21184;-78
2022/10/15 03:50:37;;;;;;;16.93;7.10;;;;;;;5.38;77.91;101064.24;1811564;79;21176;-79
2022/10/15 03:53:43;;;;;;;12.05;6.40;;;;;;;5.17;78.30;101060.54;1809838;79;21216;-78
2022/10/15 03:56:49;;;;;;;16.80;7.60;;;;;;;5.32;77.63;101063.40;1811347;79;21208;-78
2022/10/15 03:59:51;;;;;;;10.93;6.58;;;;;;;5.17;78.32;101067.32;1809075;79;21205;-79
2022/10/15 04:02:58;;;;;;;14.68;7.28;;;;;;;5.34;78.12;101063.27;1811249;79;21767;-79
2022/10/15 04:06:05;;;;;;;13.45;7.20;;;;;;;5.24;78.04;101063.64;1809855;79;21188;-79
2022/10/15 04:09:12;;;;;;;14.03;7.67;;;;;;;5.39;77.80;101069.17;1810929;79;22572;-79
2022/10/15 04:12:20;;;;;;;18.57;6.83;;;;;;;5.17;78.41;101065.97;1811300;79;21240;-78
2022/10/15 04:15:27;;;;;;;14.63;7.55;;;;;;;5.13;78.75;101064.52;1811278;79;21228;-78
2022/10/15 04:18:34;;;;;;;11.50;6.22;;;;;;;5.01;79.08;101066.34;1809650;79;21196;-78
2022/10/15 04:21:40;;;;;;;12.88;7.30;;;;;;;4.98;79.36;101072.49;1811202;79;21180;-78
2022/10/15 04:24:48;;;;;;;17.80;7.40;;;;;;;5.22;78.60;101074.63;1810283;79;21180;-78
2022/10/15 04:27:54;;;;;;;15.50;6.35;;;;;;;5.27;78.51;101079.19;1811289;79;21172;-78
2022/10/15 04:30:54;;;;;;;16.48;7.20;;;;;;;5.35;78.32;101086.19;1809686;79;21188;-78
2022/10/15 04:34:00;;;;;;;13.70;6.80;;;;;;;5.38;78.24;101082.38;1810815;79;21212;-78
2022/10/15 04:37:05;;;;;;;14.98;7.03;;;;;;;5.34;78.29;101081.75;1811261;79;21751;-78
2022/10/15 04:40:11;;;;;;;13.55;7.35;;;;;;;5.51;78.45;101086.33;1809800;79;21207;-78
2022/10/15 04:43:17;;;;;;;14.33;7.20;;;;;;;5.63;78.05;101090.73;1811348;79;21228;-78
2022/10/15 04:46:25;;;;;;;14.80;6.70;;;;;;;5.39;78.98;101087.67;1811168;79;21215;-78
2022/10/15 04:49:35;;;;;;;13.93;6.22;;;;;;;5.77;78.17;101093.67;1789424;79;21204;-78
2022/10/15 04:52:59;;;;;;;18.37;7.25;;;;;;;5.89;77.72;101088.10;1811098;79;21133;-78
2022/10/15 04:56:16;;;;;;;13.60;6.30;;;;;;;6.01;77.43;101095.73;1811367;79;21759;-78
2022/10/15 04:59:21;;;;;;;14.25;6.75;;;;;;;5.98;77.52;101103.30;1809929;79;21727;-78
2022/10/15 05:02:49;;;;;;;12.95;6.33;;;;;;;6.07;77.35;101110.66;1807990;79;21211;-78
2022/10/15 05:05:57;;;;;;;12.53;6.15;;;;;;;5.78;78.49;101115.75;1787340;79;21467;-78
2022/10/15 05:09:06;;;;;;;13.08;6.45;;;;;;;5.95;78.70;101115.27;1810954;79;21212;-78
2022/10/15 05:12:14;;;;;;;14.45;7.40;;;;;;;6.11;78.24;101112.13;1809773;79;21183;-78
2022/10/15 05:15:22;;;;;;;12.80;6.10;;;;;;;6.28;77.81;101118.87;1810165;79;21212;-78
2022/10/15 05:18:30;;;;;;;15.50;6.03;;;;;;;6.49;77.37;101117.55;1810171;79;21775;-78
2022/10/15 05:21:36;;;;;;;9.78;5.30;;;;;;;6.68;77.12;101114.12;1811288;79;21152;-78
2022/10/15 05:24:45;;;;;;;13.18;6.33;;;;;;;6.80;76.68;101121.23;1810871;79;21180;-78
2022/10/15 05:27:55;;;;;;;7.60;5.08;;;;;;;6.93;76.18;101113.74;1811388;79;21172;-78
2022/10/15 05:31:01;;;;;;;10.72;5.95;;;;;;;6.90;76.94;101120.30;1809639;79;21180;-78
2022/10/15 05:34:14;;;;;;;15.93;6.65;;;;;;;6.80;77.03;101119.88;1810785;79;21287;-78
2022/10/15 05:37:30;;;;;;;12.85;5.45;;;;;;;6.85;76.94;101123.91;1811154;79;21184;-78
2022/10/15 05:40:37;;;;;;;10.85;5.47;;;;;;;7.11;76.14;101122.16;1811224;79;21172;-78
2022/10/15 05:43:46;;;;;;;18.02;5.70;;;;;;;7.09;76.05;101122.78;1811483;79;21215;-78
2022/10/15 05:46:53;;;;;;;12.43;6.20;;;;;;;7.15;75.87;101126.31;1811307;79;21565;-78
2022/10/15 05:50:00;;;;;;;11.35;5.35;;;;;;;7.41;74.90;101128.11;1811216;79;21189;-78
2022/10/15 05:53:10;;;;;;;20.50;6.53;;;;;;;7.58;74.11;101123.40;1811439;79;21180;-78
2022/10/15 05:56:20;;;;;;;11.25;5.72;;;;;;;7.60;74.17;101130.92;1809633;79;21228;-79
2022/10/15 05:59:26;;;;;;;13.00;5.80;;;;;;;7.72;73.74;101136.28;1811084;79;21161;-78
2022/10/15 06:02:33;;;;;;;11.57;5.75;;;;;;;7.90;73.17;101132.76;1797433;79;21252;-79
2022/10/15 06:05:39;;;;;;;11.90;5.17;;;;;;;8.14;72.29;101136.97;1794549;80;21181;-78
2022/10/15 06:08:46;;;;;;;12.35;5.75;;;;;;;8.39;70.73;101134.23;1795371;80;21217;-78
2022/10/15 06:11:53;;;;;;;15.55;6.12;;;;;;;8.60;69.82;101136.81;1792841;80;22090;-79
2022/10/15 06:14:59;;;;;;;11.33;5.58;;;;;;;8.79;68.68;101143.62;1762583;81;21208;-79
2022/10/15 06:18:04;;;;;;;12.10;6.28;;;;;;;8.87;66.71;101138.31;1763850;81;21196;-78
2022/10/15 06:21:10;;;;;;;10.38;5.17;;;;;;;8.97;65.68;101143.75;1768495;80;21157;-78
2022/10/15 06:24:18;;;;;;;7.10;5.10;;;;;;;8.91;65.48;101138.89;1784867;80;21197;-78
2022/10/15 06:27:35;;;;;;;12.95;5.10;;;;;;;9.04;64.13;101144.05;1780703;80;21204;-79
2022/10/15 06:30:44;;;;;;;10.50;5.33;;;;;;;9.25;63.68;101139.25;1770526;80;21162;-80
2022/10/15 06:33:53;;;;;;;14.43;5.43;;;;;;;9.51;63.20;101138.61;1794715;80;21213;-79
2022/10/15 06:36:59;;;;;;;11.88;5.28;;;;;;;9.52;63.90;101138.96;1793784;80;21202;-78
2022/10/15 06:40:05;;;;;;;9.53;4.58;;;;;;;9.66;62.96;101137.11;1795253;80;21173;-79
2022/10/15 06:43:14;;;;;;;12.40;5.08;;;;;;;9.69;62.36;101140.88;1795165;80;21185;-79
2022/10/15 06:46:20;;;;;;;8.03;4.00;;;;;;;9.62;62.02;101139.27;1794633;80;21201;-78
2022/10/15 06:49:26;;;;;;;7.25;4.40;;;;;;;9.89;61.35;101141.17;1794248;80;21817;-80
2022/10/15 06:52:33;;;;;;;10.70;4.78;;;;;;;10.13;60.55;101142.48;1795326;80;21188;-79
2022/10/15 06:55:39;;;;;;;12.20;5.30;;;;;;;10.20;59.60;101140.83;1773091;80;21827;-79
2022/10/15 06:58:44;;;;;;;10.30;4.92;;;;;;;10.45;59.26;101142.87;1795241;80;21173;-78
2022/10/15 07:01:50;;;;;;;8.13;4.10;;;;;;;10.59;59.20;101141.98;1795155;80;21162;-78
2022/10/15 07:04:56;;;;;;;8.43;4.67;;;;;;;10.69;58.16;101144.12;1794351;80;21209;-78
2022/10/15 07:08:02;;;;;;;14.93;4.28;;;;;;;10.82;57.07;101147.33;1795343;80;21244;-79
2022/10/15 07:11:14;;;;;;;14.47;4.92;;;;;;;10.91;56.79;101147.72;1793943;80;21189;-79
2022/10/15 07:14:20;;;;;;;13.40;4.78;;;;;;;11.12;56.19;101145.16;1795358;80;21838;-78
2022/10/15 07:17:27;;;;;;;13.90;4.65;;;;;;;11.03;56.40;101148.85;1794605;80;21767;-78
2022/10/15 07:20:33;;;;;;;21.10;4.90;;;;;;;11.18;55.92;101139.03;1793808;80;21243;-78
2022/10/15 07:23:40;;;;;;;14.15;4.53;;;;;;;11.15;54.47;101148.45;1795367;80;21174;-78
2022/10/15 07:26:46;;;;;;;12.05;4.75;;;;;;;11.41;54.20;101147.58;1794801;80;21764;-79
2022/10/15 07:29:53;;;;;;;11.95;3.87;;;;;;;11.52;53.95;101148.16;1795404;80;21211;-79
2022/10/15 07:32:59;;;;;;;18.50;3.87;;;;;;;11.52;52.47;101145.92;1795370;80;21162;-79
2022/10/15 07:36:08;;;;;;;7.33;3.35;;;;;;;11.64;51.85;101145.16;1793757;80;21209;-78
2022/10/15 07:39:18;;;;;;;15.88;4.62;;;;;;;11.74;48.85;101140.41;1795552;80;21708;-78
2022/10/15 07:42:24;;;;;;;16.32;3.58;;;;;;;11.83;48.90;101143.56;1795963;80;21740;-79
2022/10/15 07:45:30;;;;;;;12.10;3.27;;;;;;;11.85;49.10;101142.88;1795369;80;21706;-78
2022/10/15 07:48:36;;;;;;;10.72;3.62;;;;;;;11.93;48.58;101142.07;1795553;80;21181;-81
2022/10/15 07:51:41;;;;;;;6.55;3.30;;;;;;;11.98;48.66;101139.69;1796402;80;21186;-78
2022/10/15 07:54:47;;;;;;;12.60;3.35;;;;;;;12.03;48.84;101144.16;1795463;80;21178;-78
2022/10/15 07:57:54;;;;;;;8.83;3.05;;;;;;;12.12;47.86;101146.42;1794383;80;21241;-78
2022/10/15 08:01:01;;;;;;;13.43;3.22;;;;;;;12.24;47.48;101146.48;1795351;80;21742;-79
2022/10/15 08:04:07;;;;;;;14.07;3.65;;;;;;;12.42;47.94;101131.23;1798229;79;21797;-78
2022/10/15 08:07:13;;;;;;;6.47;2.47;;;;;;;12.43;47.42;101135.20;1801337;79;21181;-78
2022/10/15 08:10:20;;;;;;;8.68;2.33;;;;;;;12.33;46.63;101141.36;1801371;79;21260;-78
2022/10/15 08:13:19;;;;;;;10.58;2.83;;;;;;;12.27;45.66;101136.00;1802860;79;21217;-79
2022/10/15 08:16:14;;;;;;;8.00;2.22;;;;;;;12.28;45.42;101129.52;1801392;79;21244;-79
2022/10/15 08:19:22;;;;;;;2.98;1.80;;;;;;;12.27;43.39;101139.27;1801455;79;21177;-78
2022/10/15 08:22:21;;;;;;;2.60;1.72;;;;;;;12.44;43.48;101136.06;1802981;79;21178;-78
2022/10/15 08:25:27;;;;;;;5.30;1.72;;;;;;;12.43;42.18;101139.32;1802803;79;21181;-78
2022/10/15 08:28:33;;;;;;;6.00;2.45;;;;;;;12.52;42.58;101132.83;1801336;79;21727;-78
2022/10/15 08:31:39;;;;;;;5.53;2.17;;;;;;;12.62;42.63;101139.52;1787862;79;21177;-78
2022/10/15 08:34:46;;;;;;;6.30;1.95;;;;;;;12.77;42.13;101138.33;1771142;81;21193;-79
2022/10/15 08:37:55;;;;;;;5.20;2.00;;;;;;;12.81;42.17;101131.99;1761494;81;21206;-79
2022/10/15 08:41:05;;;;;;;2.83;1.80;;;;;;;12.75;41.60;101148.61;1769755;81;21178;-79
2022/10/15 08:44:11;;;;;;;6.50;3.60;;;;;;;12.66;42.39;101144.17;1771187;81;21162;-79
2022/10/15 08:47:31;;;;;;;4.15;1.87;;;;;;;12.74;42.91;101137.30;1770892;81;21169;-78
2022/10/15 08:51:09;;;;;;;8.65;2.98;;;;;;;12.78;42.32;101134.55;1770928;81;21262;-78
2022/10/15 08:54:20;;;;;;;5.00;2.00;;;;;;;12.93;42.25;101130.09;1770557;81;21185;-79
2022/10/15 08:57:34;;;;;;;4.28;1.70;;;;;;;13.02;41.65;101122.19;1770481;81;21812;-78
2022/10/15 09:00:59;;;;;;;6.75;2.08;;;;;;;13.01;41.70;101129.23;1778142;79;21188;-79
2022/10/15 09:04:42;;;;;;;3.80;2.00;;;;;;;12.99;41.49;101136.80;1801113;79;21360;-79
2022/10/15 09:07:53;;;;;;;3.92;2.15;;;;;;;13.00;41.43;101136.62;1800884;79;21751;-78
2022/10/15 09:11:04;;;;;;;4.03;2.15;;;;;;;12.94;40.95;101124.11;1802637;79;21236;-79
2022/10/15 09:14:09;;;;;;;4.60;2.02;;;;;;;12.96;40.40;101122.89;1802389;79;21248;-79
2022/10/15 09:17:31;;;;;;;6.50;2.50;;;;;;;12.91;40.82;101120.33;1801969;79;21185;-78
2022/10/15 09:20:41;;;;;;;4.92;2.30;;;;;;;12.95;40.51;101114.31;1800882;79;21204;-79
2022/10/15 09:23:47;;;;;;;2.77;1.82;;;;;;;12.92;41.22;101118.77;1801618;79;21189;-80
2022/10/15 09:27:23;;;;;;;3.05;2.08;;;;;;;12.90;40.42;101113.12;1802108;79;21792;-80
2022/10/15 09:30:43;;;;;;;3.45;2.02;;;;;;;12.90;40.65;101103.00;1801678;79;21201;-78
2022/10/15 09:34:00;;;;;;;7.78;2.72;;;;;;;12.91;41.64;101114.31;1801803;79;22059;-78
2022/10/15 09:37:09;;;;;;;8.88;2.70;;;;;;;12.90;42.26;101107.63;1800507;79;21225;-79
2022/10/15 09:40:42;;;;;;;5.05;2.20;;;;;;;12.88;42.81;101102.29;1802055;79;21173;-78
2022/10/15 09:43:49;;;;;;;13.05;2.90;;;;;;;12.95;42.12;101107.45;1800974;79;21170;-78
2022/10/15 09:46:57;;;;;;;5.78;2.58;;;;;;;13.09;41.92;101109.16;1793817;80;21743;-80
2022/10/15 09:50:03;;;;;;;8.65;2.42;;;;;;;13.24;40.87;101104.70;1793760;79;21193;-78
2022/10/15 09:53:44;;;;;;;4.25;2.00;;;;;;;13.31;40.72;101098.83;1790563;80;21792;-78
2022/10/15 09:57:00;;;;;;;4.10;2.17;;;;;;;13.33;40.52;101093.19;1728594;83;21229;-78
2022/10/15 10:00:07;;;;;;;4.05;1.98;;;;;;;13.30;39.08;101100.73;1728142;83;21796;-77
2022/10/15 10:03:17;;;;;;;6.05;2.10;;;;;;;13.48;39.14;101090.05;1727496;83;21273;-78
2022/10/15 10:06:23;;;;;;;9.50;2.42;;;;;;;13.60;39.46;101093.25;1730576;82;21232;-78
2022/10/15 10:09:46;;;;;;;11.43;2.62;;;;;;;13.63;39.42;101103.39;1734800;82;21265;-78
2022/10/15 10:12:52;;;;;;;4.80;2.00;;;;;;;13.46;40.10;101101.22;1719383;82;21225;-79
2022/10/15 10:16:01;;;;;;;8.88;2.58;;;;;;;13.52;39.74;101094.16;1736024;82;21201;-79
2022/10/15 10:19:20;;;;;;;4.20;1.98;;;;;;;13.59;39.16;101113.02;1736183;82;21783;-79
2022/10/15 10:22:26;;;;;;;8.48;2.47;;;;;;;13.43;39.28;101104.31;1736304;82;21228;-79
2022/10/15 10:25:41;;;;;;;4.92;2.35;;;;;;;13.51;38.49;101104.81;1736568;82;21201;-79
2022/10/15 10:29:04;;;;;;;3.33;2.12;;;;;;;13.42;38.85;101095.73;1736278;82;21783;-79
2022/10/15 10:32:27;;;;;;;4.80;2.33;;;;;;;13.32;39.20;101090.95;1736013;82;21189;-79
2022/10/15 10:35:36;;;;;;;5.75;2.67;;;;;;;13.15;39.88;101077.72;1736486;82;21253;-79
2022/10/15 10:38:44;;;;;;;4.62;2.30;;;;;;;13.40;40.21;101081.30;1735396;82;21221;-79
2022/10/15 10:42:00;;;;;;;7.40;2.70;;;;;;;13.42;39.08;101080.63;1713019;82;21507;-79
2022/10/15 10:45:30;;;;;;;4.75;2.60;;;;;;;13.50;39.32;101087.47;1736724;82;21732;-79
2022/10/15 10:48:57;;;;;;;5.65;2.50;;;;;;;13.57;39.08;101073.02;1736530;82;21169;-78
2022/10/15 10:52:03;;;;;;;9.43;2.65;;;;;;;13.48;40.18;101071.66;1736634;82;22057;-79
2022/10/15 10:55:26;;;;;;;10.32;2.77;;;;;;;13.41;39.75;101069.30;1736619;82;21224;-79
2022/10/15 10:58:28;;;;;;;9.48;2.47;;;;;;;13.67;40.18;101076.41;1736604;82;21198;-79
2022/10/15 11:01:33;;;;;;;12.15;2.98;;;;;;;13.74;40.38;101068.66;1736741;82;21177;-78
2022/10/15 11:04:41;;;;;;;4.83;2.98;;;;;;;13.74;40.05;101070.55;1735322;82;21201;-79
2022/10/15 11:08:00;;;;;;;5.83;3.12;;;;;;;13.91;39.72;101065.29;1729567;82;21260;-79
2022/10/15 11:11:28;;;;;;;7.75;3.12;;;;;;;13.95;39.78;101072.67;1796167;80;21235;-79
2022/10/15 11:14:53;;;;;;;5.85;2.98;;;;;;;13.86;39.84;101070.47;1796239;80;21171;-78
2022/10/15 11:18:29;;;;;;;7.10;2.33;;;;;;;13.72;40.19;101072.60;1796356;80;21725;-79
2022/10/15 11:22:00;;;;;;;4.45;2.10;;;;;;;13.65;40.23;101075.22;1796389;80;21177;-79
2022/10/15 11:25:27;;;;;;;8.05;2.30;;;;;;;13.88;39.01;101067.05;1728586;83;21170;-79
2022/10/15 11:28:59;;;;;;;5.30;2.17;;;;;;;13.88;38.73;101061.55;1728621;83;21194;-79
2022/10/15 11:32:16;;;;;;;6.95;2.22;;;;;;;13.90;38.22;101070.45;1699577;83;21252;-78
2022/10/15 11:35:37;;;;;;;9.35;2.25;;;;;;;13.90;38.72;101069.08;1727220;83;21757;-80
2022/10/15 11:39:12;;;;;;;4.72;2.00;;;;;;;13.89;38.71;101067.90;1727982;83;21237;-78
2022/10/15 11:42:34;;;;;;;4.22;2.00;;;;;;;14.00;38.48;101068.34;1725212;81;21245;-78
2022/10/15 11:46:04;;;;;;;7.95;2.30;;;;;;;13.98;38.50;101075.92;1742810;82;21189;-78
2022/10/15 11:49:44;;;;;;;7.92;2.62;;;;;;;14.07;38.74;101071.24;1743768;81;21208;-79
2022/10/15 11:53:05;;;;;;;;;;;;;;;14.10;38.35;101072.75;1740954;82;21253;-79
2022/10/15 11:56:20;;;;;;;3.58;1.90;;;;;;;14.08;38.26;101069.34;1738411;82;20229;-79
2022/10/15 11:59:52;;;;;;;5.60;2.17;;;;;;;14.14;38.58;101072.73;1738723;82;21225;-79
2022/10/15 12:03:02;;;;;;;5.85;2.33;;;;;;;14.24;38.12;101071.98;1751857;82;21806;-79
2022/10/15 12:06:23;;;;;;;9.43;2.47;;;;;;;14.11;38.40;101075.84;1790158;80;21172;-78
2022/10/15 12:09:37;;;;;;;16.17;2.67;;;;;;;14.05;38.93;101065.05;1793630;80;21805;-79
2022/10/15 12:13:13;;;;;;;3.70;2.33;;;;;;;14.06;39.23;101066.23;1793325;80;21183;-79
2022/10/15 12:17:03;;;;;;;8.85;3.33;;;;;;;14.19;38.91;101073.90;1794361;80;22047;-79
2022/10/15 12:20:26;;;;;;;5.42;2.47;;;;;;;14.20;39.05;101073.38;1794528;80;21261;-79
2022/10/15 12:23:48;;;;;;;5.50;2.95;;;;;;;14.11;39.10;101072.56;1795028;80;21187;-79
2022/10/15 12:26:53;;;;;;;12.95;3.10;;;;;;;14.09;39.47;101076.55;1795425;80;21167;-78
2022/10/15 12:30:10;;;;;;;8.25;3.17;;;;;;;13.92;39.87;101070.27;1795351;80;22698;-78
2022/10/15 12:33:03;;;;;;;;;;;;;;;12.08;42.95;101075.11;1794768;79;21232;-79
2022/10/15 12:36:29;;;;;;;8.28;2.58;;;;;;;13.36;42.00;101067.59;1779330;80;20604;-78
2022/10/15 12:39:35;;;;;;;6.17;2.80;;;;;;;13.37;41.24;101073.95;1777586;80;21188;-78
2022/10/15 12:42:46;;;;;;;12.60;2.62;;;;;;;13.40;41.39;101068.93;1778265;80;21224;-79
2022/10/15 12:46:05;;;;;;;6.17;2.80;;;;;;;13.42;41.75;101078.39;1778584;80;21193;-78
2022/10/15 12:49:30;;;;;;;6.40;3.10;;;;;;;13.53;41.64;101075.25;1779375;80;21322;-78
2022/10/15 12:53:35;;;;;;;6.22;2.70;;;;;;;13.43;41.42;101070.48;1782877;80;21173;-78
2022/10/15 12:56:46;;;;;;;6.05;2.95;;;;;;;13.36;41.77;101064.84;1764145;80;21176;-79
2022/10/15 12:59:57;;;;;;;4.50;2.85;;;;;;;13.33;42.13;101065.70;1778833;80;21174;-79
2022/10/15 13:03:03;;;;;;;9.98;3.58;;;;;;;13.43;41.97;101064.98;1776104;81;21801;-78
2022/10/15 13:06:33;;;;;;;7.58;2.98;;;;;;;13.40;42.22;101063.95;1776081;81;21246;-78
2022/10/15 13:09:41;;;;;;;11.15;3.20;;;;;;;13.47;41.86;101057.58;1771237;80;21967;-78
2022/10/15 13:12:49;;;;;;;5.95;2.50;;;;;;;13.44;42.03;101053.80;1769322;81;21187;-78
2022/10/15 13:16:06;;;;;;;5.58;2.90;;;;;;;13.42;42.23;101049.02;1771028;81;21741;-78
2022/10/15 13:19:11;;;;;;;7.78;2.83;;;;;;;13.39;42.08;101041.12;1771017;81;21167;-78
2022/10/15 13:22:35;;;;;;;6.30;2.80;;;;;;;13.38;42.00;101039.41;1769589;81;21222;-78
2022/10/15 13:25:41;;;;;;;5.30;2.60;;;;;;;13.42;42.06;101044.05;1770173;81;21265;-78
2022/10/15 13:28:49;;;;;;;5.67;2.77;;;;;;;13.36;42.03;101037.37;1771031;81;21774;-77
2022/10/15 13:31:48;;;;;;;6.47;2.70;;;;;;;13.39;42.23;101034.77;1770272;81;21812;-78
2022/10/15 13:34:56;;;;;;;6.62;2.62;;;;;;;13.49;42.18;101039.53;1788398;79;21216;-78
2022/10/15 13:38:04;;;;;;;4.87;2.42;;;;;;;13.57;41.97;101034.53;1802618;79;21181;-78
2022/10/15 13:41:10;;;;;;;4.95;2.25;;;;;;;13.59;41.93;101031.08;1801626;79;21194;-78
2022/10/15 13:44:28;;;;;;;6.08;2.52;;;;;;;13.40;42.47;101024.96;1771033;81;21257;-78
2022/10/15 13:47:39;;;;;;;3.90;2.27;;;;;;;13.37;42.35;101028.09;1794738;79;21161;-78
2022/10/15 13:50:46;;;;;;;8.33;2.37;;;;;;;13.28;42.60;101021.75;1801745;79;21185;-78
2022/10/15 13:53:51;;;;;;;6.40;2.62;;;;;;;13.35;42.27;101026.53;1754359;81;21204;-78
2022/10/15 13:56:57;;;;;;;6.08;2.95;;;;;;;13.33;42.25;101023.97;1769385;81;21248;-78
2022/10/15 14:00:05;;;;;;;5.65;2.20;;;;;;;13.30;41.97;101034.78;1770766;81;21747;-78
2022/10/15 14:03:28;;;;;;;4.80;2.50;;;;;;;13.32;42.00;101029.14;1771047;81;21252;-78
2022/10/15 14:06:43;;;;;;;5.80;2.12;;;;;;;13.37;42.08;101033.58;1771155;81;21228;-77
2022/10/15 14:09:52;;;;;;;7.83;2.08;;;;;;;13.26;42.02;101044.41;1771096;80;21188;-78
2022/10/15 14:12:58;;;;;;;4.05;2.10;;;;;;;13.27;41.72;101036.53;1760766;79;21176;-78
2022/10/15 14:16:27;;;;;;;7.35;2.25;;;;;;;13.34;41.88;101035.81;1779227;80;21222;-78
2022/10/15 14:19:32;;;;;;;6.28;2.22;;;;;;;13.13;42.28;101033.63;1779044;80;21200;-77
2022/10/15 14:22:38;;;;;;;5.87;2.02;;;;;;;13.01;42.72;101041.36;1777846;80;21275;-78
2022/10/15 14:25:44;;;;;;;3.55;1.95;;;;;;;12.87;42.98;101038.80;1777685;80;21200;-78
2022/10/15 14:28:54;;;;;;;7.08;2.27;;;;;;;12.96;42.63;101040.52;1779117;80;21232;-78
2022/10/15 14:32:01;;;;;;;4.00;2.00;;;;;;;12.88;42.82;101041.89;1756788;80;21183;-78
2022/10/15 14:35:09;;;;;;;3.15;1.67;;;;;;;12.77;43.14;101043.63;1779026;80;21240;-78
2022/10/15 14:38:18;;;;;;;6.08;2.15;;;;;;;12.76;43.17;101051.52;1779571;80;21188;-78
2022/10/15 14:41:35;;;;;;;7.62;2.33;;;;;;;12.72;43.42;101047.41;1778943;80;21184;-78
2022/10/15 14:44:54;;;;;;;14.03;2.47;;;;;;;12.67;43.48;101059.42;1778016;80;21192;-79
2022/10/15 14:48:09;;;;;;;3.12;2.08;;;;;;;12.60;43.66;101057.00;1779382;80;21192;-78
2022/10/15 14:51:23;;;;;;;7.37;2.10;;;;;;;12.54;43.75;101062.15;1779142;80;21168;-79